createdAt,value
2018-05-18T00:00:04.051Z,84.06
2018-05-18T00:02:30.761Z,83.46
2018-05-18T00:04:57.904Z,83.77
2018-05-18T00:07:25.152Z,83.76
2018-05-18T00:09:52.626Z,83.47
2018-05-18T00:12:19.806Z,84.12
2018-05-18T00:14:46.302Z,84.23
2018-05-18T00:17:13.504Z,84.12
2018-05-18T00:19:39.876Z,84.00
2018-05-18T00:22:07.064Z,84.26
2018-05-18T00:24:33.529Z,84.03
2018-05-18T00:26:59.946Z,84.17
2018-05-18T00:29:26.400Z,83.53
2018-05-18T00:31:54.379Z,83.26
2018-05-18T00:34:21.962Z,82.82
2018-05-18T00:36:49.215Z,82.67
2018-05-18T00:39:15.680Z,82.83
2018-05-18T00:41:42.071Z,82.38
2018-05-18T00:44:09.175Z,82.44
2018-05-18T00:46:35.643Z,80.77
2018-05-18T00:49:02.042Z,81.33
2018-05-18T00:51:28.436Z,81.48
2018-05-18T00:53:55.176Z,81.81
2018-05-18T00:56:22.739Z,81.75
2018-05-18T00:58:49.898Z,81.73
2018-05-18T01:01:16.300Z,81.48
2018-05-18T01:03:42.755Z,81.16
2018-05-18T01:06:09.933Z,81.39
2018-05-18T01:08:36.329Z,81.05
2018-05-18T01:11:03.553Z,81.19
2018-05-18T01:13:29.981Z,81.55
2018-05-18T01:15:56.428Z,81.42
2018-05-18T01:18:22.886Z,81.65
2018-05-18T01:20:50.454Z,81.79
2018-05-18T01:23:16.894Z,81.75
2018-05-18T01:25:43.324Z,81.78
2018-05-18T01:28:09.721Z,82.12
2018-05-18T01:30:36.181Z,82.73
2018-05-18T01:33:02.597Z,82.38
2018-05-18T01:35:29.756Z,82.62
2018-05-18T01:37:56.942Z,82.77
2018-05-18T01:40:23.460Z,83.27
2018-05-18T01:42:49.920Z,83.68
2018-05-18T01:45:16.406Z,83.58
2018-05-18T01:47:43.875Z,83.70
2018-05-18T01:50:10.989Z,83.87
2018-05-18T01:52:37.516Z,83.47
2018-05-18T01:55:03.897Z,83.51
2018-05-18T01:57:30.381Z,83.42
2018-05-18T01:59:56.759Z,83.26
2018-05-18T02:02:23.174Z,83.41
2018-05-18T02:04:50.323Z,83.27
2018-05-18T02:07:17.514Z,83.75
2018-05-18T02:09:43.937Z,83.56
2018-05-18T02:12:10.350Z,83.82
2018-05-18T02:14:37.503Z,83.74
2018-05-18T02:17:04.648Z,83.78
2018-05-18T02:19:31.800Z,83.26
2018-05-18T02:21:58.949Z,83.35
2018-05-18T02:24:26.069Z,83.38
2018-05-18T02:26:52.502Z,83.31
2018-05-18T02:29:18.991Z,83.65
2018-05-18T02:31:45.712Z,83.81
2018-05-18T02:34:12.906Z,83.27
2018-05-18T02:36:39.386Z,83.63
2018-05-18T02:39:06.522Z,83.57
2018-05-18T02:41:33.649Z,83.34
2018-05-18T02:44:00.073Z,83.72
2018-05-18T02:46:26.514Z,84.52
2018-05-18T02:48:52.969Z,84.24
2018-05-18T02:51:20.195Z,84.27
2018-05-18T02:53:46.609Z,84.66
2018-05-18T02:56:13.024Z,85.12
2018-05-18T02:58:39.600Z,85.39
2018-05-18T03:01:06.049Z,85.66
2018-05-18T03:03:32.448Z,85.95
2018-05-18T03:05:58.852Z,86.15
2018-05-18T03:08:25.389Z,86.10
2018-05-18T03:10:51.816Z,86.30
2018-05-18T03:13:18.283Z,86.51
2018-05-18T03:15:44.736Z,86.75
2018-05-18T03:18:11.197Z,86.77
2018-05-18T03:20:38.405Z,86.65
2018-05-18T03:23:04.850Z,86.56
2018-05-18T03:25:31.282Z,86.46
2018-05-18T03:27:57.868Z,86.44
2018-05-18T03:30:25.001Z,86.33
2018-05-18T03:32:52.154Z,86.25
2018-05-18T03:35:19.268Z,86.21
2018-05-18T03:37:45.672Z,86.49
2018-05-18T03:40:12.067Z,86.65
2018-05-18T03:42:39.535Z,86.87
2018-05-18T03:45:06.994Z,86.94
2018-05-18T03:47:34.101Z,86.97
2018-05-18T03:50:00.485Z,86.74
2018-05-18T03:52:26.887Z,86.93
2018-05-18T03:54:53.293Z,87.00
2018-05-18T03:57:19.980Z,87.30
2018-05-18T03:59:47.167Z,86.98
2018-05-18T04:02:32.283Z,86.70
2018-05-18T04:05:17.834Z,86.36
2018-05-18T04:08:00.436Z,86.03
2018-05-18T04:10:26.833Z,86.30
2018-05-18T04:12:53.211Z,86.00
2018-05-18T04:15:19.701Z,85.48
2018-05-18T04:17:46.074Z,85.36
2018-05-18T04:20:12.482Z,85.24
2018-05-18T04:22:39.199Z,85.19
2018-05-18T04:25:05.616Z,84.95
2018-05-18T04:27:32.825Z,84.62
2018-05-18T04:29:59.172Z,84.29
2018-05-18T04:32:26.286Z,84.12
2018-05-18T04:34:53.105Z,83.93
2018-05-18T04:37:19.536Z,83.42
2018-05-18T04:39:45.962Z,82.63
2018-05-18T04:42:13.181Z,82.69
2018-05-18T04:44:39.563Z,82.51
2018-05-18T04:47:06.165Z,82.63
2018-05-18T04:49:32.615Z,82.99
2018-05-18T04:51:59.773Z,83.18
2018-05-18T04:54:26.186Z,82.95
2018-05-18T04:56:52.570Z,82.94
2018-05-18T04:59:19.051Z,82.47
2018-05-18T05:01:46.186Z,81.49
2018-05-18T05:04:12.629Z,80.67
2018-05-18T05:06:39.728Z,80.38
2018-05-18T05:09:06.229Z,80.00
2018-05-18T05:11:33.745Z,79.25
2018-05-18T05:14:00.987Z,78.47
2018-05-18T05:16:27.443Z,78.17
2018-05-18T05:18:54.316Z,77.64
2018-05-18T05:21:21.528Z,77.59
2018-05-18T05:23:48.084Z,77.08
2018-05-18T05:26:14.467Z,76.39
2018-05-18T05:28:41.145Z,75.31
2018-05-18T05:31:07.590Z,75.28
2018-05-18T05:33:33.985Z,74.56
2018-05-18T05:36:00.459Z,73.14
2018-05-18T05:38:27.842Z,66.87
2018-05-18T05:40:54.458Z,66.08
2018-05-18T05:43:21.583Z,65.52
2018-05-18T05:45:48.008Z,65.73
2018-05-18T05:48:14.692Z,65.23
2018-05-18T05:50:42.040Z,65.49
2018-05-18T05:53:09.247Z,64.63
2018-05-18T05:55:35.783Z,65.34
2018-05-18T05:58:02.222Z,65.93
2018-05-18T06:00:28.780Z,65.73
2018-05-18T06:02:55.277Z,65.12
2018-05-18T06:05:22.039Z,64.68
2018-05-18T06:07:48.451Z,64.58
2018-05-18T06:10:15.150Z,63.85
2018-05-18T06:12:42.718Z,63.62
2018-05-18T06:15:09.066Z,63.49
2018-05-18T06:17:35.784Z,63.42
2018-05-18T06:20:02.958Z,63.17
2018-05-18T06:22:29.373Z,63.01
2018-05-18T06:24:55.890Z,63.10
2018-05-18T06:27:23.043Z,61.73
2018-05-18T06:29:50.189Z,61.42
2018-05-18T06:32:17.394Z,61.16
2018-05-18T06:34:44.278Z,61.49
2018-05-18T06:37:10.642Z,60.92
2018-05-18T06:39:37.046Z,60.50
2018-05-18T06:42:04.518Z,61.16
2018-05-18T06:44:30.881Z,61.35
2018-05-18T06:46:57.943Z,61.00
2018-05-18T06:49:25.110Z,60.56
2018-05-18T06:51:52.254Z,60.33
2018-05-18T06:54:18.677Z,59.66
2018-05-18T06:56:45.158Z,59.91
2018-05-18T06:59:12.536Z,59.94
2018-05-18T07:01:39.342Z,59.61
2018-05-18T07:04:07.216Z,59.59
2018-05-18T07:06:33.706Z,59.64
2018-05-18T07:09:00.082Z,59.41
2018-05-18T07:11:27.367Z,59.78
2018-05-18T07:13:54.899Z,58.88
2018-05-18T07:16:21.437Z,59.19
2018-05-18T07:18:47.895Z,58.52
2018-05-18T07:21:14.411Z,59.04
2018-05-18T07:23:40.785Z,58.41
2018-05-18T07:26:07.172Z,59.15
2018-05-18T07:28:33.633Z,59.27
2018-05-18T07:31:00.000Z,58.44
2018-05-18T07:33:26.435Z,57.68
2018-05-18T07:35:52.841Z,59.09
2018-05-18T07:38:19.361Z,57.82
2018-05-18T07:40:45.831Z,58.18
2018-05-18T07:43:12.202Z,57.01
2018-05-18T07:45:38.561Z,57.19
2018-05-18T07:48:04.974Z,57.02
2018-05-18T07:50:31.350Z,56.22
2018-05-18T07:52:57.845Z,56.49
2018-05-18T07:55:24.220Z,56.37
2018-05-18T07:57:50.612Z,54.49
2018-05-18T08:00:17.010Z,55.71
2018-05-18T08:02:44.263Z,54.60
2018-05-18T08:05:10.858Z,56.08
2018-05-18T08:07:37.266Z,55.12
2018-05-18T08:10:03.738Z,55.06
2018-05-18T08:12:30.135Z,54.29
2018-05-18T08:14:56.546Z,54.22
2018-05-18T08:17:23.018Z,54.20
2018-05-18T08:19:49.837Z,53.54
2018-05-18T08:22:16.196Z,54.36
2018-05-18T08:24:42.566Z,53.94
2018-05-18T08:27:22.390Z,52.87
2018-05-18T08:29:48.801Z,52.93
2018-05-18T08:32:15.247Z,53.25
2018-05-18T08:34:41.722Z,52.43
2018-05-18T08:37:08.916Z,51.68
2018-05-18T08:39:35.365Z,51.13
2018-05-18T08:42:01.789Z,51.65
2018-05-18T08:44:28.325Z,50.63
2018-05-18T08:46:55.475Z,50.46
2018-05-18T08:49:22.296Z,50.77
2018-05-18T08:51:48.738Z,50.80
2018-05-18T08:54:15.218Z,51.37
2018-05-18T08:56:41.712Z,49.09
2018-05-18T08:59:08.182Z,48.72
2018-05-18T09:01:36.177Z,48.87
2018-05-18T09:04:03.369Z,49.40
2018-05-18T09:06:29.820Z,49.19
2018-05-18T09:08:56.348Z,49.53
2018-05-18T09:11:22.706Z,49.84
2018-05-18T09:13:49.851Z,47.84
2018-05-18T09:16:16.233Z,49.75
2018-05-18T09:18:42.686Z,49.64
2018-05-18T09:21:09.125Z,49.88
2018-05-18T09:23:35.649Z,48.46
2018-05-18T09:26:02.082Z,47.56
2018-05-18T09:28:28.926Z,46.55
2018-05-18T09:30:55.299Z,46.58
2018-05-18T09:33:21.757Z,45.66
2018-05-18T09:35:48.901Z,46.30
2018-05-18T09:38:16.151Z,47.43
2018-05-18T09:40:43.324Z,46.40
2018-05-18T09:43:10.070Z,47.29
2018-05-18T09:45:36.471Z,47.01
2018-05-18T09:48:03.624Z,46.24
2018-05-18T09:50:30.796Z,45.72
2018-05-18T09:52:57.228Z,45.15
2018-05-18T09:55:23.861Z,44.86
2018-05-18T09:57:50.127Z,44.77
2018-05-18T10:00:16.656Z,44.51
2018-05-18T10:02:43.278Z,43.72
2018-05-18T10:05:09.694Z,43.26
2018-05-18T10:07:36.125Z,41.85
2018-05-18T10:10:02.786Z,42.37
2018-05-18T10:12:29.204Z,43.12
2018-05-18T10:14:55.579Z,41.76
2018-05-18T10:17:22.009Z,42.21
2018-05-18T10:19:48.492Z,41.29
2018-05-18T10:22:15.682Z,41.54
2018-05-18T10:24:42.305Z,40.27
2018-05-18T10:27:08.739Z,39.27
2018-05-18T10:29:35.133Z,39.13
2018-05-18T10:32:02.285Z,38.20
2018-05-18T10:34:29.513Z,39.68
2018-05-18T10:36:55.899Z,39.39
2018-05-18T10:39:22.356Z,38.90
2018-05-18T10:41:48.883Z,38.83
2018-05-18T10:44:15.332Z,37.29
2018-05-18T10:46:41.722Z,38.35
2018-05-18T10:49:08.180Z,38.23
2018-05-18T10:51:34.607Z,37.61
2018-05-18T10:54:01.083Z,37.20
2018-05-18T10:56:27.465Z,38.32
2018-05-18T10:58:53.882Z,37.39
2018-05-18T11:01:20.472Z,37.38
2018-05-18T11:03:46.850Z,36.76
2018-05-18T11:06:13.261Z,36.87
2018-05-18T11:08:40.413Z,36.25
2018-05-18T11:11:07.862Z,37.38
2018-05-18T11:13:35.240Z,39.27
2018-05-18T11:16:01.663Z,39.00
2018-05-18T11:18:28.816Z,38.22
2018-05-18T11:20:56.192Z,38.17
2018-05-18T11:23:22.579Z,37.75
2018-05-18T11:25:49.129Z,38.62
2018-05-18T11:28:17.440Z,39.48
2018-05-18T11:30:44.256Z,37.95
2018-05-18T11:33:11.552Z,38.82
2018-05-18T11:35:37.999Z,39.15
2018-05-18T11:38:04.576Z,40.04
2018-05-18T11:40:31.963Z,39.85
2018-05-18T11:42:58.554Z,39.99
2018-05-18T11:45:25.087Z,39.73
2018-05-18T11:47:51.641Z,39.51
2018-05-18T11:50:19.219Z,40.50
2018-05-18T11:52:45.893Z,39.99
2018-05-18T11:55:12.508Z,38.00
2018-05-18T11:57:39.370Z,37.68
2018-05-18T12:00:05.902Z,36.85
2018-05-18T12:02:32.414Z,37.54
2018-05-18T12:04:58.919Z,38.04
2018-05-18T12:07:26.097Z,37.68
2018-05-18T12:09:52.502Z,36.62
2018-05-18T12:12:20.702Z,36.47
2018-05-18T12:14:47.442Z,35.18
2018-05-18T12:17:13.908Z,35.22
2018-05-18T12:19:40.306Z,34.05
2018-05-18T12:22:06.790Z,32.60
2018-05-18T12:24:33.584Z,33.20
2018-05-18T12:27:00.040Z,33.08
2018-05-18T12:29:26.473Z,32.64
2018-05-18T12:31:52.847Z,34.34
2018-05-18T12:34:19.317Z,34.84
2018-05-18T12:36:45.713Z,34.40
2018-05-18T12:39:12.175Z,33.46
2018-05-18T12:41:39.361Z,33.51
2018-05-18T12:44:05.764Z,34.21
2018-05-18T12:46:32.201Z,32.75
2018-05-18T12:48:58.625Z,32.85
2018-05-18T12:51:25.061Z,31.28
2018-05-18T12:53:51.456Z,30.43
2018-05-18T12:56:17.837Z,29.82
2018-05-18T12:58:44.219Z,29.56
2018-05-18T13:01:10.718Z,29.23
2018-05-18T13:03:37.165Z,29.48
2018-05-18T13:06:03.635Z,31.35
2018-05-18T13:08:30.069Z,32.00
2018-05-18T13:10:57.213Z,31.06
2018-05-18T13:13:23.830Z,30.66
2018-05-18T13:15:50.580Z,29.41
2018-05-18T13:18:17.249Z,28.21
2018-05-18T13:20:43.929Z,28.61
2018-05-18T13:23:10.657Z,26.84
2018-05-18T13:25:37.198Z,25.27
2018-05-18T13:28:03.674Z,24.52
2018-05-18T13:30:30.063Z,23.58
2018-05-18T13:32:56.773Z,22.92
2018-05-18T13:35:24.479Z,21.74
2018-05-18T13:37:50.904Z,21.23
2018-05-18T13:40:17.379Z,21.47
2018-05-18T13:42:43.829Z,21.78
2018-05-18T13:45:11.136Z,21.82
2018-05-18T13:47:37.901Z,23.00
2018-05-18T13:50:04.379Z,21.63
2018-05-18T13:52:30.832Z,21.70
2018-05-18T13:54:57.372Z,21.05
2018-05-18T13:57:23.900Z,19.68
2018-05-18T13:59:50.616Z,19.86
2018-05-18T14:02:17.021Z,19.68
2018-05-18T14:04:43.464Z,18.56
2018-05-18T14:07:10.636Z,20.30
2018-05-18T14:09:37.280Z,20.65
2018-05-18T14:12:03.726Z,20.38
2018-05-18T14:14:30.162Z,19.06
2018-05-18T14:16:56.633Z,17.54
2018-05-18T14:19:23.904Z,18.20
2018-05-18T14:21:50.438Z,18.61
2018-05-18T14:24:17.009Z,17.45
2018-05-18T14:26:43.399Z,17.02
2018-05-18T14:29:10.716Z,16.89
2018-05-18T14:31:37.141Z,18.34
2018-05-18T14:34:03.597Z,17.44
2018-05-18T14:36:30.091Z,16.72
2018-05-18T14:38:56.514Z,17.23
2018-05-18T14:41:23.382Z,17.39
2018-05-18T14:43:50.086Z,17.85
2018-05-18T14:46:16.434Z,18.44
2018-05-18T14:48:42.911Z,18.55
2018-05-18T14:51:09.280Z,17.59
2018-05-18T14:53:36.633Z,17.89
2018-05-18T14:56:03.803Z,19.07
2018-05-18T14:58:30.407Z,17.50
2018-05-18T15:00:56.667Z,17.96
2018-05-18T15:03:23.237Z,17.33
2018-05-18T15:05:49.740Z,17.25
2018-05-18T15:08:16.199Z,18.51
2018-05-18T15:10:42.690Z,19.28
2018-05-18T15:13:09.862Z,20.11
2018-05-18T15:15:36.222Z,18.46
2018-05-18T15:18:02.664Z,17.06
2018-05-18T15:20:29.097Z,18.43
2018-05-18T15:22:55.640Z,17.78
2018-05-18T15:25:22.151Z,17.24
2018-05-18T15:27:48.957Z,18.51
2018-05-18T15:30:15.410Z,19.81
2018-05-18T15:32:41.919Z,20.04
2018-05-18T15:35:08.368Z,19.66
2018-05-18T15:37:34.775Z,19.19
2018-05-18T15:40:02.255Z,17.61
2018-05-18T15:42:28.783Z,17.01
2018-05-18T15:44:55.241Z,17.81
2018-05-18T15:47:21.701Z,17.71
2018-05-18T15:49:48.486Z,17.94
2018-05-18T15:52:15.743Z,17.83
2018-05-18T15:54:42.395Z,17.34
2018-05-18T15:57:08.949Z,17.41
2018-05-18T15:59:35.359Z,17.36
2018-05-18T16:02:01.766Z,16.72
2018-05-18T16:04:29.020Z,16.42
2018-05-18T16:06:56.112Z,17.49
2018-05-18T16:09:22.634Z,18.96
2018-05-18T16:11:49.130Z,19.10
2018-05-18T16:14:16.446Z,17.46
2018-05-18T16:16:43.015Z,18.66
2018-05-18T16:19:09.773Z,18.56
2018-05-18T16:21:37.102Z,18.49
2018-05-18T16:24:03.676Z,18.91
2018-05-18T16:26:30.255Z,18.99
2018-05-18T16:28:56.839Z,19.39
2018-05-18T16:31:23.460Z,18.35
2018-05-18T16:33:49.887Z,17.36
2018-05-18T16:36:16.389Z,17.94
2018-05-18T16:38:42.960Z,17.57
2018-05-18T16:41:09.358Z,18.25
2018-05-18T16:43:35.777Z,18.89
2018-05-18T16:46:02.209Z,18.73
2018-05-18T16:48:29.159Z,18.91
2018-05-18T16:50:55.576Z,17.82
2018-05-18T16:53:22.213Z,18.44
2018-05-18T16:55:48.630Z,19.02
2018-05-18T16:58:15.152Z,19.94
2018-05-18T17:00:42.305Z,18.49
2018-05-18T17:03:09.483Z,19.68
2018-05-18T17:05:35.934Z,19.85
2018-05-18T17:08:02.334Z,19.88
2018-05-18T17:10:29.520Z,19.83
2018-05-18T17:12:55.988Z,20.18
2018-05-18T17:15:23.166Z,20.30
2018-05-18T17:17:50.537Z,21.29
2018-05-18T17:20:16.877Z,21.15
2018-05-18T17:22:43.395Z,21.67
2018-05-18T17:25:09.796Z,21.72
2018-05-18T17:27:36.962Z,21.30
2018-05-18T17:30:04.146Z,21.77
2018-05-18T17:32:30.545Z,21.84
2018-05-18T17:34:57.673Z,21.98
2018-05-18T17:37:24.185Z,21.15
2018-05-18T17:39:50.655Z,21.78
2018-05-18T17:42:18.196Z,22.78
2018-05-18T17:44:44.665Z,23.36
2018-05-18T17:47:11.930Z,24.33
2018-05-18T17:49:38.344Z,24.70
2018-05-18T17:52:05.517Z,26.88
2018-05-18T17:54:32.077Z,29.71
2018-05-18T17:56:58.447Z,30.54
2018-05-18T17:59:25.715Z,31.87
2018-05-18T18:01:52.086Z,32.89
2018-05-18T18:04:18.486Z,33.32
2018-05-18T18:06:44.849Z,34.24
2018-05-18T18:09:11.273Z,34.85
2018-05-18T18:11:37.640Z,35.28
2018-05-18T18:14:04.853Z,35.75
2018-05-18T18:16:31.322Z,37.02
2018-05-18T18:18:57.770Z,37.93
2018-05-18T18:21:24.226Z,37.40
2018-05-18T18:23:51.367Z,38.24
2018-05-18T18:26:18.559Z,38.63
2018-05-18T18:28:44.999Z,39.20
2018-05-18T18:31:11.409Z,39.60
2018-05-18T18:33:38.359Z,40.67
2018-05-18T18:36:04.829Z,41.63
2018-05-18T18:38:32.185Z,43.16
2018-05-18T18:40:58.893Z,44.32
2018-05-18T18:43:25.354Z,44.94
2018-05-18T18:45:51.846Z,46.17
2018-05-18T18:48:18.215Z,47.11
2018-05-18T18:50:44.773Z,46.97
2018-05-18T18:53:12.068Z,47.96
2018-05-18T18:55:38.518Z,48.68
2018-05-18T18:58:04.909Z,49.15
2018-05-18T19:00:31.333Z,49.68
2018-05-18T19:02:57.723Z,50.87
2018-05-18T19:05:24.137Z,50.88
2018-05-18T19:07:50.617Z,51.65
2018-05-18T19:10:17.838Z,52.14
2018-05-18T19:12:44.247Z,52.43
2018-05-18T19:15:10.714Z,52.79
2018-05-18T19:17:37.163Z,53.40
2018-05-18T19:20:03.713Z,54.47
2018-05-18T19:22:30.880Z,54.42
2018-05-18T19:24:58.019Z,55.24
2018-05-18T19:27:25.145Z,55.57
2018-05-18T19:29:51.615Z,55.84
2018-05-18T19:32:17.991Z,56.24
2018-05-18T19:34:44.443Z,56.21
2018-05-18T19:37:10.963Z,56.25
2018-05-18T19:39:37.392Z,56.37
2018-05-18T19:42:03.783Z,56.54
2018-05-18T19:44:30.221Z,56.25
2018-05-18T19:46:56.812Z,56.36
2018-05-18T19:49:23.313Z,56.80
2018-05-18T19:51:50.316Z,56.99
2018-05-18T19:54:16.747Z,57.24
2018-05-18T19:56:43.963Z,57.01
2018-05-18T19:59:10.400Z,57.43
2018-05-18T20:01:36.791Z,57.53
2018-05-18T20:04:03.190Z,58.14
2018-05-18T20:06:30.068Z,58.58
2018-05-18T20:08:56.648Z,58.63
2018-05-18T20:11:23.103Z,59.19
2018-05-18T20:13:49.873Z,59.51
2018-05-18T20:16:17.430Z,59.92
2018-05-18T20:18:44.665Z,60.06
2018-05-18T20:21:11.907Z,60.33
2018-05-18T20:23:38.367Z,60.40
2018-05-18T20:26:04.950Z,60.68
2018-05-18T20:28:31.424Z,61.17
2018-05-18T20:30:58.633Z,61.76
2018-05-18T20:33:25.122Z,62.33
2018-05-18T20:35:52.395Z,62.58
2018-05-18T20:38:18.971Z,63.15
2018-05-18T20:40:45.292Z,63.34
2018-05-18T20:43:12.423Z,63.76
2018-05-18T20:45:38.864Z,63.97
2018-05-18T20:48:05.265Z,63.86
2018-05-18T20:50:31.738Z,63.77
2018-05-18T20:52:58.234Z,64.44
2018-05-18T20:55:24.713Z,64.82
2018-05-18T20:57:51.324Z,65.13
2018-05-18T21:00:17.725Z,65.26
2018-05-18T21:02:45.029Z,65.49
2018-05-18T21:05:11.599Z,65.75
2018-05-18T21:07:38.179Z,65.94
2018-05-18T21:10:05.008Z,66.25
2018-05-18T21:12:31.615Z,66.72
2018-05-18T21:14:59.307Z,66.73
2018-05-18T21:17:25.794Z,67.03
2018-05-18T21:19:52.331Z,67.11
2018-05-18T21:22:18.781Z,67.05
2018-05-18T21:24:46.036Z,67.21
2018-05-18T21:27:13.617Z,67.58
2018-05-18T21:29:40.190Z,67.67
2018-05-18T21:32:07.252Z,68.04
2018-05-18T21:34:33.648Z,68.19
2018-05-18T21:37:00.695Z,68.22
2018-05-18T21:39:27.198Z,68.27
2018-05-18T21:41:54.480Z,68.55
2018-05-18T21:44:20.856Z,68.51
2018-05-18T21:46:47.377Z,68.77
2018-05-18T21:49:13.796Z,68.90
2018-05-18T21:51:40.294Z,69.03
2018-05-18T21:54:07.452Z,69.01
2018-05-18T21:56:34.645Z,69.46
2018-05-18T21:59:01.248Z,69.68
2018-05-18T22:01:27.670Z,69.65
2018-05-18T22:03:55.436Z,70.02
2018-05-18T22:06:22.659Z,69.96
2018-05-18T22:08:49.083Z,70.01
2018-05-18T22:11:15.485Z,70.32
2018-05-18T22:13:41.892Z,70.80
2018-05-18T22:16:08.309Z,70.99
2018-05-18T22:18:35.423Z,70.84
2018-05-18T22:21:01.871Z,70.96
2018-05-18T22:23:28.286Z,71.65
2018-05-18T22:25:54.780Z,71.62
2018-05-18T22:28:21.169Z,71.58
2018-05-18T22:30:47.574Z,71.88
2018-05-18T22:33:14.055Z,72.29
2018-05-18T22:35:41.365Z,72.55
2018-05-18T22:38:07.814Z,72.51
2018-05-18T22:40:35.190Z,72.54
2018-05-18T22:43:02.334Z,72.66
2018-05-18T22:45:29.532Z,72.58
2018-05-18T22:47:56.557Z,72.86
2018-05-18T22:50:23.699Z,73.01
2018-05-18T22:52:50.831Z,72.65
2018-05-18T22:55:17.237Z,72.86
2018-05-18T22:57:43.601Z,73.33
2018-05-18T23:00:11.617Z,73.28
2018-05-18T23:02:38.122Z,72.93
2018-05-18T23:05:05.677Z,72.50
2018-05-18T23:07:32.845Z,72.33
2018-05-18T23:10:00.135Z,72.48
2018-05-18T23:12:27.335Z,72.79
2018-05-18T23:14:55.013Z,72.60
2018-05-18T23:17:21.494Z,72.69
2018-05-18T23:19:48.001Z,73.27
2018-05-18T23:22:14.356Z,73.44
2018-05-18T23:24:40.867Z,73.36
2018-05-18T23:27:07.569Z,73.62
2018-05-18T23:29:34.710Z,74.01
2018-05-18T23:32:01.829Z,74.07
2018-05-18T23:34:28.220Z,74.13
2018-05-18T23:36:54.649Z,74.13
2018-05-18T23:39:21.399Z,74.37
2018-05-18T23:41:47.778Z,75.24
2018-05-18T23:44:14.240Z,75.53
2018-05-18T23:46:41.491Z,74.69
2018-05-18T23:49:07.937Z,75.12
2018-05-18T23:51:34.413Z,75.17
2018-05-18T23:54:01.017Z,75.08
2018-05-18T23:56:27.411Z,75.74
2018-05-18T23:58:54.598Z,75.52
